createdAt,value
2019-05-26T00:01:22.730Z,14.40
2019-05-26T00:03:50.342Z,14.40
2019-05-26T00:06:17.941Z,14.40
2019-05-26T00:08:45.977Z,14.40
2019-05-26T00:11:13.617Z,14.30
2019-05-26T00:13:41.309Z,14.40
2019-05-26T00:16:28.441Z,14.30
2019-05-26T00:18:56.047Z,14.30
2019-05-26T00:21:23.622Z,14.30
2019-05-26T00:23:51.255Z,14.30
2019-05-26T00:26:18.936Z,14.40
2019-05-26T00:28:46.537Z,14.40
2019-05-26T00:31:14.181Z,14.40
2019-05-26T00:33:41.856Z,14.40
2019-05-26T00:36:09.513Z,14.30
2019-05-26T00:38:37.105Z,14.30
2019-05-26T00:41:04.705Z,14.30
2019-05-26T00:43:32.359Z,14.30
2019-05-26T00:45:59.973Z,14.30
2019-05-26T00:48:27.545Z,14.30
2019-05-26T00:50:55.110Z,14.40
2019-05-26T00:53:22.725Z,14.30
2019-05-26T00:55:50.413Z,14.30
2019-05-26T00:58:18.025Z,14.30
2019-05-26T01:00:45.661Z,14.30
2019-05-26T01:03:13.341Z,14.30
2019-05-26T01:05:41.282Z,14.40
2019-05-26T01:08:08.945Z,14.40
2019-05-26T01:10:36.733Z,14.30
2019-05-26T01:13:05.129Z,14.30
2019-05-26T01:15:32.709Z,14.30
2019-05-26T01:18:00.321Z,14.30
2019-05-26T01:20:27.897Z,14.40
2019-05-26T01:22:55.608Z,14.30
2019-05-26T01:25:24.197Z,14.30
2019-05-26T01:27:51.868Z,14.30
2019-05-26T01:30:24.017Z,14.30
2019-05-26T01:32:51.645Z,14.30
2019-05-26T01:35:19.265Z,14.30
2019-05-26T01:37:47.086Z,14.30
2019-05-26T01:40:14.798Z,14.30
2019-05-26T01:42:42.437Z,14.30
2019-05-26T01:45:11.101Z,14.30
2019-05-26T01:47:38.731Z,14.30
2019-05-26T01:50:06.637Z,14.30
2019-05-26T01:52:34.245Z,14.30
2019-05-26T01:55:01.876Z,14.30
2019-05-26T01:57:29.463Z,14.30
2019-05-26T01:59:57.201Z,14.30
2019-05-26T02:02:24.862Z,14.30
2019-05-26T02:04:52.447Z,14.30
2019-05-26T02:07:20.048Z,14.20
2019-05-26T02:09:47.741Z,14.20
2019-05-26T02:12:15.473Z,14.20
2019-05-26T02:14:43.119Z,14.20
2019-05-26T02:17:10.912Z,14.20
2019-05-26T02:19:38.598Z,14.20
2019-05-26T02:22:06.443Z,14.20
2019-05-26T02:24:34.065Z,14.20
2019-05-26T02:27:01.749Z,14.30
2019-05-26T02:29:29.355Z,14.20
2019-05-26T02:31:56.965Z,14.30
2019-05-26T02:34:24.594Z,14.30
2019-05-26T02:36:52.285Z,14.30
2019-05-26T02:39:19.930Z,14.30
2019-05-26T02:41:47.598Z,14.20
2019-05-26T02:44:15.272Z,14.20
2019-05-26T02:46:43.154Z,14.30
2019-05-26T02:49:10.918Z,14.30
2019-05-26T02:51:38.538Z,14.20
2019-05-26T02:54:06.181Z,14.20
2019-05-26T02:56:33.765Z,14.30
2019-05-26T02:59:01.354Z,14.20
2019-05-26T03:01:30.158Z,14.30
2019-05-26T03:03:58.128Z,14.20
2019-05-26T03:06:27.446Z,14.20
2019-05-26T03:08:57.682Z,14.20
2019-05-26T03:11:28.573Z,14.20
2019-05-26T03:13:59.421Z,14.20
2019-05-26T03:16:30.125Z,14.20
2019-05-26T03:19:00.973Z,14.20
2019-05-26T03:21:30.882Z,14.20
2019-05-26T03:24:02.088Z,14.20
2019-05-26T03:26:29.714Z,14.20
2019-05-26T03:28:57.365Z,14.20
2019-05-26T03:31:24.955Z,14.20
2019-05-26T03:33:52.700Z,14.10
2019-05-26T03:36:20.276Z,14.20
2019-05-26T03:38:48.001Z,14.20
2019-05-26T03:41:15.753Z,14.10
2019-05-26T03:43:43.369Z,14.20
2019-05-26T03:46:18.361Z,14.10
2019-05-26T03:48:46.452Z,14.20
2019-05-26T03:51:14.294Z,14.20
2019-05-26T03:53:42.016Z,14.20
2019-05-26T03:56:09.635Z,14.20
2019-05-26T03:58:37.233Z,14.20
2019-05-26T04:01:04.911Z,14.20
2019-05-26T04:03:32.506Z,14.30
2019-05-26T04:06:00.113Z,14.30
2019-05-26T04:08:27.722Z,14.30
2019-05-26T04:10:55.330Z,14.30
2019-05-26T04:13:22.924Z,14.40
2019-05-26T04:15:50.665Z,14.30
2019-05-26T04:18:18.283Z,14.40
2019-05-26T04:20:46.137Z,14.30
2019-05-26T04:23:13.918Z,14.30
2019-05-26T04:25:41.528Z,14.40
2019-05-26T04:28:09.560Z,14.40
2019-05-26T04:30:37.242Z,14.40
2019-05-26T04:33:04.899Z,14.50
2019-05-26T04:35:33.487Z,14.50
2019-05-26T04:38:01.118Z,14.60
2019-05-26T04:40:28.881Z,14.50
2019-05-26T04:42:56.468Z,14.50
2019-05-26T04:45:24.926Z,14.50
2019-05-26T04:47:52.576Z,14.50
2019-05-26T04:50:20.278Z,14.50
2019-05-26T04:53:04.576Z,14.60
2019-05-26T04:55:17.628Z,14.60
2019-05-26T04:57:45.305Z,14.60
2019-05-26T05:00:13.522Z,14.70
2019-05-26T05:02:41.189Z,14.80
2019-05-26T05:05:09.546Z,14.80
2019-05-26T05:07:37.132Z,14.90
2019-05-26T05:10:05.178Z,15.00
2019-05-26T05:12:32.757Z,15.00
2019-05-26T05:15:00.405Z,15.10
2019-05-26T05:17:28.019Z,15.10
2019-05-26T05:19:55.680Z,15.10
2019-05-26T05:22:23.330Z,15.20
2019-05-26T05:24:51.093Z,15.30
2019-05-26T05:27:18.710Z,15.40
2019-05-26T05:29:46.341Z,15.50
2019-05-26T05:32:14.049Z,15.60
2019-05-26T05:34:41.744Z,15.70
2019-05-26T05:37:09.352Z,15.80
2019-05-26T05:39:37.029Z,15.90
2019-05-26T05:42:04.670Z,16.00
2019-05-26T05:44:34.524Z,16.00
2019-05-26T05:47:02.179Z,16.10
2019-05-26T05:49:30.355Z,16.20
2019-05-26T05:51:58.049Z,16.30
2019-05-26T05:54:25.696Z,16.30
2019-05-26T05:56:55.609Z,16.40
2019-05-26T05:59:25.022Z,16.50
2019-05-26T06:01:52.740Z,16.60
2019-05-26T06:04:20.555Z,16.70
2019-05-26T06:06:48.347Z,16.70
2019-05-26T06:09:16.088Z,16.80
2019-05-26T06:11:43.910Z,16.90
2019-05-26T06:14:11.574Z,17.00
2019-05-26T06:16:39.217Z,17.10
2019-05-26T06:19:06.862Z,17.10
2019-05-26T06:21:34.534Z,17.20
2019-05-26T06:24:03.046Z,17.30
2019-05-26T06:26:30.714Z,17.30
2019-05-26T06:28:58.326Z,17.40
2019-05-26T06:31:25.991Z,17.40
2019-05-26T06:33:53.717Z,17.50
2019-05-26T06:36:21.398Z,17.60
2019-05-26T06:38:49.098Z,17.70
2019-05-26T06:41:32.216Z,17.70
2019-05-26T06:43:46.261Z,17.80
2019-05-26T06:46:13.933Z,17.90
2019-05-26T06:48:41.550Z,17.90
2019-05-26T06:51:09.235Z,18.00
2019-05-26T06:53:37.645Z,18.10
2019-05-26T06:56:05.288Z,18.10
2019-05-26T06:58:32.927Z,18.20
2019-05-26T07:01:00.947Z,18.30
2019-05-26T07:03:28.832Z,18.40
2019-05-26T07:05:56.570Z,18.50
2019-05-26T07:08:24.309Z,18.60
2019-05-26T07:10:52.080Z,18.60
2019-05-26T07:13:19.693Z,18.60
2019-05-26T07:15:47.437Z,18.60
2019-05-26T07:18:15.149Z,18.60
2019-05-26T07:20:42.749Z,18.60
2019-05-26T07:23:10.654Z,18.60
2019-05-26T07:25:38.644Z,18.70
2019-05-26T07:28:06.333Z,18.70
2019-05-26T07:30:33.947Z,18.80
2019-05-26T07:33:01.537Z,18.80
2019-05-26T07:35:32.943Z,18.80
2019-05-26T07:37:59.641Z,18.90
2019-05-26T07:40:27.252Z,18.90
2019-05-26T07:42:57.949Z,19.00
2019-05-26T07:45:28.692Z,19.00
2019-05-26T07:47:57.665Z,19.00
2019-05-26T07:50:25.261Z,19.10
2019-05-26T07:52:52.869Z,19.20
2019-05-26T07:55:20.449Z,19.30
2019-05-26T07:57:48.214Z,19.40
2019-05-26T08:00:16.133Z,19.40
2019-05-26T08:02:43.767Z,19.50
2019-05-26T08:05:11.586Z,19.60
2019-05-26T08:07:39.278Z,19.70
2019-05-26T08:10:07.026Z,19.80
2019-05-26T08:12:34.633Z,19.80
2019-05-26T08:15:02.384Z,19.90
2019-05-26T08:17:29.965Z,20.00
2019-05-26T08:19:57.569Z,20.00
2019-05-26T08:22:25.209Z,20.00
2019-05-26T08:24:54.081Z,20.10
2019-05-26T08:27:21.731Z,20.10
2019-05-26T08:29:49.325Z,20.10
2019-05-26T08:32:17.125Z,20.20
2019-05-26T08:34:44.752Z,20.30
2019-05-26T08:37:12.485Z,20.40
2019-05-26T08:39:40.144Z,20.50
2019-05-26T08:42:07.765Z,20.40
2019-05-26T08:44:35.383Z,20.70
2019-05-26T08:47:03.185Z,20.70
2019-05-26T08:49:30.766Z,20.80
2019-05-26T08:51:58.413Z,21.00
2019-05-26T08:54:26.721Z,21.10
2019-05-26T08:56:54.329Z,21.40
2019-05-26T08:59:21.937Z,21.50
2019-05-26T09:01:49.621Z,21.70
2019-05-26T09:04:17.305Z,21.90
2019-05-26T09:06:45.013Z,22.10
2019-05-26T09:09:13.893Z,22.20
2019-05-26T09:11:41.485Z,22.40
2019-05-26T09:14:09.108Z,22.60
2019-05-26T09:16:36.702Z,22.80
2019-05-26T09:19:04.628Z,22.90
2019-05-26T09:21:32.241Z,23.00
2019-05-26T09:23:59.879Z,23.10
2019-05-26T09:29:12.801Z,23.50
2019-05-26T09:31:40.417Z,23.70
2019-05-26T09:34:08.046Z,23.90
2019-05-26T09:36:35.672Z,24.10
2019-05-26T09:39:05.451Z,24.20
2019-05-26T09:41:33.056Z,24.30
2019-05-26T09:44:00.731Z,24.40
2019-05-26T09:46:28.350Z,24.60
2019-05-26T09:48:55.965Z,24.90
2019-05-26T09:51:23.581Z,25.10
2019-05-26T09:54:01.159Z,25.30
2019-05-26T09:56:20.731Z,25.40
2019-05-26T09:58:48.460Z,25.50
2019-05-26T10:01:16.126Z,25.50
2019-05-26T10:03:43.726Z,25.60
2019-05-26T10:06:11.358Z,25.60
2019-05-26T10:08:38.998Z,25.80
2019-05-26T10:11:06.662Z,25.90
2019-05-26T10:13:34.330Z,26.10
2019-05-26T10:16:02.319Z,26.30
2019-05-26T10:18:30.232Z,26.30
2019-05-26T10:20:58.942Z,26.50
2019-05-26T10:23:26.624Z,26.60
2019-05-26T10:25:54.269Z,26.80
2019-05-26T10:28:21.927Z,27.00
2019-05-26T10:30:49.830Z,27.20
2019-05-26T10:33:23.717Z,27.40
2019-05-26T10:35:51.544Z,27.50
2019-05-26T10:38:19.158Z,27.60
2019-05-26T10:40:46.905Z,27.80
2019-05-26T10:43:15.883Z,27.80
2019-05-26T10:45:44.006Z,27.90
2019-05-26T10:48:11.613Z,27.80
2019-05-26T10:50:39.276Z,27.80
2019-05-26T10:53:06.895Z,27.60
2019-05-26T10:55:34.496Z,27.50
2019-05-26T10:58:02.106Z,27.40
2019-05-26T11:00:32.847Z,27.10
2019-05-26T11:02:59.323Z,26.80
2019-05-26T11:05:26.933Z,26.50
2019-05-26T11:07:54.608Z,26.30
2019-05-26T11:10:22.230Z,26.10
2019-05-26T11:12:49.934Z,26.00
2019-05-26T11:15:18.155Z,25.70
2019-05-26T11:17:45.825Z,25.50
2019-05-26T11:20:13.666Z,25.20
2019-05-26T11:22:41.339Z,24.90
2019-05-26T11:25:10.159Z,24.80
2019-05-26T11:27:37.766Z,24.70
2019-05-26T11:30:06.621Z,24.60
2019-05-26T11:32:34.262Z,24.50
2019-05-26T11:35:02.324Z,24.40
2019-05-26T11:37:30.101Z,24.30
2019-05-26T11:39:57.723Z,24.30
2019-05-26T11:42:25.434Z,24.30
2019-05-26T11:44:53.118Z,24.40
2019-05-26T11:47:20.774Z,24.40
2019-05-26T11:49:48.501Z,24.50
2019-05-26T11:52:19.970Z,24.50
2019-05-26T11:54:45.681Z,24.60
2019-05-26T11:57:13.308Z,24.70
2019-05-26T11:59:40.921Z,24.90
2019-05-26T12:02:09.662Z,24.90
2019-05-26T12:04:37.276Z,24.90
2019-05-26T12:07:04.963Z,25.00
2019-05-26T12:09:32.702Z,25.10
2019-05-26T12:12:00.295Z,25.20
2019-05-26T12:14:34.973Z,25.60
2019-05-26T12:17:16.848Z,25.80
2019-05-26T12:19:44.449Z,26.10
2019-05-26T12:22:12.068Z,26.40
2019-05-26T12:24:39.678Z,26.70
2019-05-26T12:27:07.313Z,26.90
2019-05-26T12:29:34.923Z,27.10
2019-05-26T12:32:02.586Z,27.20
2019-05-26T12:34:30.325Z,27.10
2019-05-26T12:36:57.957Z,27.30
2019-05-26T12:39:25.613Z,27.20
2019-05-26T12:41:53.283Z,27.20
2019-05-26T12:44:20.919Z,27.10
2019-05-26T12:46:48.713Z,27.20
2019-05-26T12:49:16.341Z,27.00
2019-05-26T12:51:43.963Z,27.00
2019-05-26T12:54:11.578Z,27.00
2019-05-26T12:56:39.172Z,26.90
2019-05-26T12:59:07.247Z,26.70
2019-05-26T13:01:34.922Z,26.60
2019-05-26T13:04:02.926Z,26.50
2019-05-26T13:06:30.559Z,26.40
2019-05-26T13:08:58.170Z,26.30
2019-05-26T13:11:25.820Z,26.30
2019-05-26T13:13:53.429Z,26.30
2019-05-26T13:16:21.168Z,26.40
2019-05-26T13:18:48.941Z,26.50
2019-05-26T13:21:16.622Z,26.50
2019-05-26T13:23:44.219Z,26.60
2019-05-26T13:26:11.882Z,26.70
2019-05-26T13:28:39.546Z,26.70
2019-05-26T13:31:07.132Z,26.80
2019-05-26T13:33:34.752Z,27.10
2019-05-26T13:36:02.481Z,27.20
2019-05-26T13:38:30.240Z,27.30
2019-05-26T13:40:57.856Z,27.30
2019-05-26T13:43:26.694Z,27.40
2019-05-26T13:45:54.297Z,27.50
2019-05-26T13:48:22.025Z,27.60
2019-05-26T13:50:49.713Z,27.60
2019-05-26T13:53:17.450Z,27.80
2019-05-26T13:55:45.090Z,27.80
2019-05-26T13:58:12.729Z,28.00
2019-05-26T14:00:40.357Z,28.20
2019-05-26T14:03:07.998Z,28.30
2019-05-26T14:05:35.644Z,28.30
2019-05-26T14:08:03.341Z,28.40
2019-05-26T14:10:36.799Z,28.50
2019-05-26T14:13:05.080Z,28.60
2019-05-26T14:15:37.984Z,28.60
2019-05-26T14:18:02.529Z,28.60
2019-05-26T14:20:35.053Z,28.60
2019-05-26T14:23:02.810Z,28.60
2019-05-26T14:25:30.364Z,28.60
2019-05-26T14:27:58.074Z,28.60
2019-05-26T14:30:25.819Z,28.60
2019-05-26T14:32:53.550Z,28.60
2019-05-26T14:35:21.293Z,28.70
2019-05-26T14:37:49.066Z,28.60
2019-05-26T14:40:16.785Z,28.60
2019-05-26T14:42:44.434Z,28.60
2019-05-26T14:45:12.162Z,28.50
2019-05-26T14:47:39.776Z,28.40
2019-05-26T14:50:07.779Z,28.30
2019-05-26T14:52:35.454Z,28.30
2019-05-26T14:55:03.467Z,28.00
2019-05-26T14:57:31.273Z,27.90
2019-05-26T14:59:58.950Z,27.80
2019-05-26T15:02:26.560Z,27.80
2019-05-26T15:04:54.550Z,27.80
2019-05-26T15:07:22.286Z,27.80
2019-05-26T15:09:50.019Z,27.80
2019-05-26T15:12:17.622Z,27.90
2019-05-26T15:14:45.261Z,27.90
2019-05-26T15:17:12.887Z,27.90
2019-05-26T15:19:40.506Z,27.90
2019-05-26T15:22:08.130Z,27.90
2019-05-26T15:24:35.735Z,27.80
2019-05-26T15:27:03.442Z,27.80
2019-05-26T15:29:31.081Z,27.80
2019-05-26T15:31:59.083Z,27.70
2019-05-26T15:34:26.725Z,27.60
2019-05-26T15:36:54.425Z,27.50
2019-05-26T15:39:22.153Z,27.30
2019-05-26T15:41:49.769Z,27.20
2019-05-26T15:44:17.441Z,27.00
2019-05-26T15:46:45.041Z,27.00
2019-05-26T15:49:12.666Z,27.00
2019-05-26T15:51:40.273Z,26.90
2019-05-26T15:54:07.922Z,26.80
2019-05-26T15:56:35.528Z,26.70
2019-05-26T15:59:03.157Z,26.60
2019-05-26T16:01:30.801Z,26.60
2019-05-26T16:03:58.412Z,26.50
2019-05-26T16:06:26.094Z,26.40
2019-05-26T16:08:53.741Z,26.30
2019-05-26T16:11:21.481Z,26.10
2019-05-26T16:13:49.265Z,26.00
2019-05-26T16:16:16.795Z,25.90
2019-05-26T16:18:44.413Z,25.90
2019-05-26T16:21:26.984Z,25.90
2019-05-26T16:23:41.482Z,25.80
2019-05-26T16:26:09.125Z,25.70
2019-05-26T16:28:37.790Z,25.60
2019-05-26T16:31:05.381Z,25.60
2019-05-26T16:33:32.962Z,25.50
2019-05-26T16:36:00.634Z,25.40
2019-05-26T16:38:28.337Z,25.30
2019-05-26T16:40:55.997Z,25.20
2019-05-26T16:43:23.590Z,25.10
2019-05-26T16:45:56.196Z,25.00
2019-05-26T16:48:21.071Z,24.90
2019-05-26T16:50:48.752Z,24.80
2019-05-26T16:53:16.731Z,24.70
2019-05-26T16:55:44.430Z,24.60
2019-05-26T16:58:12.221Z,24.50
2019-05-26T17:00:39.905Z,24.50
2019-05-26T17:03:07.789Z,24.40
2019-05-26T17:05:35.545Z,24.40
2019-05-26T17:08:03.235Z,24.30
2019-05-26T17:10:30.861Z,24.30
2019-05-26T17:12:58.509Z,24.20
2019-05-26T17:15:26.181Z,24.10
2019-05-26T17:17:53.798Z,24.10
2019-05-26T17:20:21.637Z,24.00
2019-05-26T17:22:49.300Z,23.90
2019-05-26T17:25:17.147Z,23.80
2019-05-26T17:27:44.771Z,23.80
2019-05-26T17:30:12.674Z,23.70
2019-05-26T17:32:40.289Z,23.60
2019-05-26T17:35:07.897Z,23.60
2019-05-26T17:37:38.346Z,23.40
2019-05-26T17:40:07.253Z,23.30
2019-05-26T17:42:34.881Z,23.20
2019-05-26T17:45:02.599Z,23.10
2019-05-26T17:47:31.050Z,23.10
2019-05-26T17:49:58.734Z,23.00
2019-05-26T17:52:26.327Z,22.90
2019-05-26T17:54:53.985Z,22.80
2019-05-26T17:57:21.799Z,22.70
2019-05-26T17:59:49.413Z,22.70
2019-05-26T18:02:17.038Z,22.60
2019-05-26T18:04:44.854Z,22.50
2019-05-26T18:07:12.505Z,22.40
2019-05-26T18:09:44.101Z,22.30
2019-05-26T18:12:09.849Z,22.20
2019-05-26T18:14:37.443Z,22.20
2019-05-26T18:17:05.037Z,22.10
2019-05-26T18:19:32.675Z,22.00
2019-05-26T18:22:00.310Z,22.00
2019-05-26T18:24:27.962Z,21.90
2019-05-26T18:26:55.634Z,21.80
2019-05-26T18:29:23.338Z,21.70
2019-05-26T18:31:51.133Z,21.70
2019-05-26T18:34:18.777Z,21.60
2019-05-26T18:36:46.563Z,21.50
2019-05-26T18:39:14.137Z,21.40
2019-05-26T18:41:41.780Z,21.30
2019-05-26T18:44:09.390Z,21.20
2019-05-26T18:46:37.033Z,21.20
2019-05-26T18:49:04.777Z,21.10
2019-05-26T18:51:32.381Z,21.00
2019-05-26T18:54:00.082Z,20.90
2019-05-26T18:56:27.878Z,20.80
2019-05-26T18:58:55.583Z,20.70
2019-05-26T19:01:23.669Z,20.70
2019-05-26T19:03:51.412Z,20.60
2019-05-26T19:06:19.126Z,20.50
2019-05-26T19:08:46.989Z,20.40
2019-05-26T19:11:14.795Z,20.30
2019-05-26T19:13:42.543Z,20.20
2019-05-26T19:16:10.349Z,20.10
2019-05-26T19:18:38.014Z,20.00
2019-05-26T19:21:05.688Z,19.90
2019-05-26T19:23:34.372Z,19.80
2019-05-26T19:26:02.104Z,19.70
2019-05-26T19:28:29.705Z,19.60
2019-05-26T19:30:57.445Z,19.50
2019-05-26T19:33:25.228Z,19.40
2019-05-26T19:35:53.090Z,19.20
2019-05-26T19:38:20.745Z,19.10
2019-05-26T19:40:49.604Z,19.00
2019-05-26T19:43:17.297Z,18.90
2019-05-26T19:45:44.966Z,18.80
2019-05-26T19:48:12.771Z,18.70
2019-05-26T19:50:40.496Z,18.60
2019-05-26T19:53:08.200Z,18.50
2019-05-26T19:55:35.893Z,18.40
2019-05-26T19:58:03.815Z,18.30
2019-05-26T20:00:31.422Z,18.20
2019-05-26T20:02:59.045Z,18.20
2019-05-26T20:05:26.753Z,18.10
2019-05-26T20:07:54.493Z,18.00
2019-05-26T20:10:22.604Z,17.90
2019-05-26T20:12:50.215Z,17.90
2019-05-26T20:15:18.278Z,17.80
2019-05-26T20:17:45.945Z,17.80
2019-05-26T20:20:14.344Z,17.70
2019-05-26T20:22:41.974Z,17.70
2019-05-26T20:25:09.706Z,17.60
2019-05-26T20:27:37.330Z,17.60
2019-05-26T20:30:05.361Z,17.50
2019-05-26T20:32:32.951Z,17.50
2019-05-26T20:35:00.594Z,17.40
2019-05-26T20:37:28.293Z,17.30
2019-05-26T20:39:56.009Z,17.30
2019-05-26T20:42:23.621Z,17.30
2019-05-26T20:44:51.394Z,17.20
2019-05-26T20:47:19.008Z,17.10
2019-05-26T20:49:46.648Z,17.00
2019-05-26T20:52:14.380Z,17.00
2019-05-26T20:54:44.049Z,17.00
2019-05-26T20:57:11.709Z,16.90
2019-05-26T20:59:39.374Z,16.90
2019-05-26T21:02:07.401Z,16.80
2019-05-26T21:04:35.007Z,16.80
2019-05-26T21:07:03.433Z,16.80
2019-05-26T21:09:31.180Z,16.80
2019-05-26T21:11:58.801Z,16.70
2019-05-26T21:14:26.607Z,16.70
2019-05-26T21:16:54.249Z,16.70
2019-05-26T21:19:21.886Z,16.70
2019-05-26T21:21:49.633Z,16.70
2019-05-26T21:24:17.350Z,16.60
2019-05-26T21:26:45.094Z,16.60
2019-05-26T21:29:13.132Z,16.50
2019-05-26T21:31:41.157Z,16.60
2019-05-26T21:34:08.934Z,16.50
2019-05-26T21:36:36.633Z,16.50
2019-05-26T21:39:06.682Z,16.50
2019-05-26T21:41:34.342Z,16.50
2019-05-26T21:44:02.117Z,16.40
2019-05-26T21:46:30.175Z,16.40
2019-05-26T21:48:57.896Z,16.30
2019-05-26T21:51:25.557Z,16.20
2019-05-26T21:53:53.358Z,16.30
2019-05-26T21:56:21.303Z,16.30
2019-05-26T21:58:49.519Z,16.30
2019-05-26T22:01:17.326Z,16.40
2019-05-26T22:03:45.004Z,16.50
2019-05-26T22:06:12.880Z,16.50
2019-05-26T22:08:40.438Z,16.60
2019-05-26T22:11:10.926Z,16.50
2019-05-26T22:13:38.586Z,16.60
2019-05-26T22:16:06.197Z,16.60
2019-05-26T22:18:33.829Z,16.50
2019-05-26T22:21:01.449Z,16.50
2019-05-26T22:23:29.074Z,16.50
2019-05-26T22:25:56.683Z,16.40
2019-05-26T22:28:24.407Z,16.40
2019-05-26T22:30:52.102Z,16.30
2019-05-26T22:33:19.714Z,16.30
2019-05-26T22:35:47.393Z,16.50
2019-05-26T22:38:15.018Z,16.40
2019-05-26T22:40:42.629Z,16.30
2019-05-26T22:43:10.257Z,16.30
2019-05-26T22:45:39.163Z,16.20
2019-05-26T22:48:06.808Z,16.20
2019-05-26T22:50:34.493Z,16.20
2019-05-26T22:53:02.097Z,16.20
2019-05-26T22:55:29.698Z,16.20
2019-05-26T22:57:57.454Z,16.10
2019-05-26T23:00:25.145Z,16.20
2019-05-26T23:02:52.762Z,16.10
2019-05-26T23:05:20.372Z,16.10
2019-05-26T23:07:48.056Z,16.20
2019-05-26T23:10:15.749Z,16.10
2019-05-26T23:12:43.369Z,16.00
2019-05-26T23:15:11.205Z,16.00
2019-05-26T23:17:38.846Z,15.90
2019-05-26T23:20:08.189Z,15.80
2019-05-26T23:22:35.801Z,15.80
2019-05-26T23:25:03.947Z,15.70
2019-05-26T23:27:31.517Z,15.80
2019-05-26T23:29:59.231Z,15.70
2019-05-26T23:32:26.885Z,15.80
2019-05-26T23:34:54.485Z,15.90
2019-05-26T23:37:22.061Z,15.90
2019-05-26T23:39:49.673Z,15.90
2019-05-26T23:42:17.420Z,15.90
2019-05-26T23:44:45.957Z,15.90
2019-05-26T23:47:13.575Z,15.80
2019-05-26T23:49:41.973Z,15.60
2019-05-26T23:52:09.603Z,15.60
2019-05-26T23:54:40.758Z,15.70
2019-05-26T23:57:08.410Z,15.60
2019-05-26T23:59:36.701Z,15.60
